Time;durP1;ratioP1;P1;durP2;ratioP2;P2;SDS_P1;SDS_P2;PMS_P1;PMS_P2;Temp;Humidity;BMP_temperature;BMP_pressure;BME280_temperature;BME280_humidity;BME280_pressure;Samples;Min_cycle;Max_cycle;Signal;HPM_P1;HPM_P2
2023/06/29 00:02:02;;;;;;;21.02;16.13;;;;;20.20;101156.00;;;;10414325;28;20233;-77
2023/06/29 00:07:03;;;;;;;22.05;14.90;;;;;20.20;101148.00;;;;10438077;28;20251;-75
2023/06/29 00:12:05;;;;;;;21.08;15.80;;;;;20.10;101144.00;;;;10446813;28;20259;-74
2023/06/29 00:17:07;;;;;;;19.80;14.05;;;;;20.10;101149.00;;;;10452150;28;20710;-75
2023/06/29 00:22:09;;;;;;;17.95;15.18;;;;;20.10;101144.00;;;;10441603;28;20233;-76
2023/06/29 00:27:15;;;;;;;23.80;16.08;;;;;20.10;101151.00;;;;10447606;28;20452;-74
2023/06/29 00:32:16;;;;;;;23.02;15.48;;;;;20.00;101143.00;;;;10446689;28;20200;-74
2023/06/29 00:37:19;;;;;;;22.38;15.98;;;;;20.00;101142.00;;;;10430299;28;21463;-73
2023/06/29 00:42:20;;;;;;;22.05;15.30;;;;;20.00;101139.00;;;;10452557;28;20667;-74
2023/06/29 00:47:22;;;;;;;20.30;15.85;;;;;20.10;101137.00;;;;10522871;28;20192;-74
2023/06/29 00:52:24;;;;;;;25.42;15.82;;;;;20.10;101127.00;;;;10524623;28;20208;-73
2023/06/29 00:57:29;;;;;;;20.13;15.32;;;;;20.10;101125.00;;;;10539622;28;20212;-74
2023/06/29 01:02:30;;;;;;;22.48;16.15;;;;;20.00;101109.00;;;;10542303;28;20208;-81
2023/06/29 01:07:39;;;;;;;22.25;16.08;;;;;19.90;101099.00;;;;10516921;28;20284;-76
2023/06/29 01:12:40;;;;;;;21.88;16.02;;;;;19.80;101093.00;;;;10495405;28;20432;-77
2023/06/29 01:17:43;;;;;;;25.15;17.05;;;;;19.80;101094.00;;;;10488076;28;20742;-76
2023/06/29 01:22:55;;;;;;;22.60;16.83;;;;;19.70;101085.00;;;;10513301;28;20669;-76
2023/06/29 01:27:57;;;;;;;21.85;15.48;;;;;19.60;101085.00;;;;10518574;28;20208;-74
2023/06/29 01:32:59;;;;;;;24.70;16.50;;;;;19.50;101086.00;;;;10509474;28;20197;-72
2023/06/29 01:38:27;;;;;;;26.15;18.25;;;;;19.30;101080.00;;;;10506785;28;20314;-72
2023/06/29 01:43:29;;;;;;;22.63;18.10;;;;;19.20;101077.00;;;;10508234;28;20577;-76
2023/06/29 01:48:33;;;;;;;28.42;18.88;;;;;19.10;101080.00;;;;10538367;28;20230;-76
2023/06/29 01:53:36;;;;;;;28.02;19.63;;;;;19.20;101076.00;;;;10523671;28;20546;-81
2023/06/29 01:58:38;;;;;;;28.92;18.80;;;;;19.20;101071.00;;;;10433303;28;20233;-77
2023/06/29 02:03:39;;;;;;;27.05;17.83;;;;;19.30;101065.00;;;;10408869;28;20208;-76
2023/06/29 02:08:42;;;;;;;23.30;17.45;;;;;19.30;101059.00;;;;10392941;28;20211;-77
2023/06/29 02:13:43;;;;;;;23.48;18.90;;;;;19.20;101061.00;;;;10382966;28;20341;-77
2023/06/29 02:18:45;;;;;;;22.88;16.48;;;;;19.20;101062.00;;;;10458800;28;20288;-75
2023/06/29 02:23:46;;;;;;;23.65;17.70;;;;;19.00;101062.00;;;;10499896;28;20658;-76
2023/06/29 02:28:49;;;;;;;23.38;17.45;;;;;18.90;101052.00;;;;10510371;28;20201;-76
2023/06/29 02:33:51;;;;;;;26.08;19.05;;;;;18.80;101052.00;;;;10542641;28;20578;-74
2023/06/29 02:38:53;;;;;;;27.00;19.10;;;;;18.80;101062.00;;;;10500523;28;20217;-76
2023/06/29 02:43:56;;;;;;;29.83;21.27;;;;;18.70;101058.00;;;;10488055;28;20205;-75
2023/06/29 02:48:58;;;;;;;32.03;21.63;;;;;18.70;101047.00;;;;10474034;28;20211;-73
2023/06/29 02:53:59;;;;;;;34.55;20.50;;;;;18.70;101042.00;;;;10528995;28;20272;-75
2023/06/29 02:59:00;;;;;;;29.10;21.08;;;;;18.70;101041.00;;;;10516683;28;20590;-73
2023/06/29 03:04:02;;;;;;;28.42;21.88;;;;;18.60;101047.00;;;;10515302;28;20205;-74
2023/06/29 03:09:04;;;;;;;30.90;21.27;;;;;18.70;101038.00;;;;10436657;28;20205;-76
2023/06/29 03:14:05;;;;;;;30.60;20.10;;;;;18.60;101042.00;;;;10404390;28;20575;-77
2023/06/29 03:19:07;;;;;;;29.27;20.80;;;;;18.60;101046.00;;;;10383463;28;20225;-78
2023/06/29 03:24:08;;;;;;;27.67;20.55;;;;;18.60;101046.00;;;;10405095;28;20201;-78
2023/06/29 03:29:09;;;;;;;28.35;19.80;;;;;18.70;101041.00;;;;10413531;28;20259;-75
2023/06/29 03:34:10;;;;;;;27.45;19.90;;;;;18.80;101041.00;;;;10539103;28;20607;-75
2023/06/29 03:39:12;;;;;;;29.88;20.48;;;;;18.80;101046.00;;;;10521670;28;20216;-75
2023/06/29 03:44:13;;;;;;;28.23;19.58;;;;;18.90;101042.00;;;;10508638;28;20197;-75
2023/06/29 03:49:14;;;;;;;26.25;19.45;;;;;18.90;101034.00;;;;10524296;28;20209;-72
2023/06/29 03:54:16;;;;;;;31.58;20.75;;;;;18.80;101029.00;;;;10546064;28;20243;-82
2023/06/29 03:59:17;;;;;;;27.40;19.52;;;;;18.80;101023.00;;;;10544397;28;20208;-75
2023/06/29 04:04:18;;;;;;;30.85;20.77;;;;;18.70;101032.00;;;;10546667;28;20216;-85
2023/06/29 04:09:20;;;;;;;28.45;19.55;;;;;18.70;101029.00;;;;10544123;28;20196;-75
2023/06/29 04:14:21;;;;;;;26.92;19.50;;;;;18.70;101022.00;;;;10541564;28;20223;-74
2023/06/29 04:19:22;;;;;;;27.85;19.45;;;;;18.80;101026.00;;;;10541916;28;20700;-75
2023/06/29 04:24:24;;;;;;;30.73;18.77;;;;;18.90;101017.00;;;;10512081;28;20650;-75
2023/06/29 04:29:26;;;;;;;25.02;19.77;;;;;19.00;101005.00;;;;10502623;28;20657;-82
2023/06/29 04:34:27;;;;;;;27.67;20.35;;;;;19.00;100998.00;;;;10545105;28;20291;-84
2023/06/29 04:39:29;;;;;;;27.10;21.25;;;;;19.00;101002.00;;;;10495356;28;20578;-76
2023/06/29 04:44:31;;;;;;;30.05;23.00;;;;;19.10;100997.00;;;;10499945;28;20232;-82
2023/06/29 04:49:37;;;;;;;29.00;21.30;;;;;19.30;100999.00;;;;10499835;28;20189;-76
2023/06/29 04:54:38;;;;;;;30.42;22.58;;;;;19.60;100991.00;;;;10486265;28;20290;-82
2023/06/29 04:59:39;;;;;;;26.90;20.58;;;;;19.80;101005.00;;;;10487486;28;20303;-75
2023/06/29 05:04:41;;;;;;;28.90;20.52;;;;;19.80;101006.00;;;;10529872;28;20203;-75
2023/06/29 05:09:42;;;;;;;27.40;20.52;;;;;19.90;101015.00;;;;10516017;28;20193;-82
2023/06/29 05:14:44;;;;;;;28.48;21.10;;;;;19.90;101010.00;;;;10497997;28;20235;-81
2023/06/29 05:19:45;;;;;;;27.55;20.80;;;;;20.00;101020.00;;;;10497949;28;20698;-75
2023/06/29 05:24:47;;;;;;;27.33;20.38;;;;;20.30;101007.00;;;;10524770;28;20205;-83
2023/06/29 05:29:49;;;;;;;28.60;20.50;;;;;20.70;101003.00;;;;10535496;28;20197;-85
2023/06/29 05:34:50;;;;;;;27.42;21.05;;;;;21.10;100994.00;;;;10516540;28;20283;-75
2023/06/29 05:39:51;;;;;;;30.45;20.70;;;;;21.30;100996.00;;;;10531345;28;20212;-82
2023/06/29 05:44:53;;;;;;;28.58;20.73;;;;;21.30;100998.00;;;;10512429;28;20204;-72
2023/06/29 05:49:54;;;;;;;32.75;21.70;;;;;21.70;100994.00;;;;10506736;28;20213;-87
2023/06/29 05:54:56;;;;;;;28.50;20.92;;;;;22.10;100985.00;;;;10511417;28;20215;-84
2023/06/29 05:59:57;;;;;;;32.15;22.95;;;;;22.80;100977.00;;;;10512301;28;20574;-78
2023/06/29 06:04:59;;;;;;;31.48;21.83;;;;;23.30;100988.00;;;;10517754;28;20549;-82
2023/06/29 06:10:00;;;;;;;29.27;23.08;;;;;23.40;100991.00;;;;10508677;28;20200;-74
2023/06/29 06:15:02;;;;;;;31.65;22.20;;;;;23.20;100976.00;;;;10508588;28;20246;-76
2023/06/29 06:20:08;;;;;;;31.35;23.20;;;;;23.10;100985.00;;;;10500686;28;20242;-77
2023/06/29 06:25:09;;;;;;;28.75;22.13;;;;;23.00;100989.00;;;;10523667;28;20212;-75
2023/06/29 06:30:11;;;;;;;30.70;23.17;;;;;22.80;100997.00;;;;10530098;28;20227;-76
2023/06/29 06:35:13;;;;;;;30.45;22.75;;;;;22.80;100994.00;;;;10506770;28;20258;-84
2023/06/29 06:40:15;;;;;;;34.15;23.95;;;;;23.00;100985.00;;;;10480997;28;20212;-74
2023/06/29 06:45:17;;;;;;;34.33;23.65;;;;;23.00;100990.00;;;;10509390;28;20233;-74
2023/06/29 06:50:20;;;;;;;32.17;23.98;;;;;23.00;101000.00;;;;10511000;28;20208;-74
2023/06/29 06:55:21;;;;;;;39.22;24.92;;;;;23.00;100988.00;;;;10519174;28;20231;-79
2023/06/29 07:00:23;;;;;;;34.40;23.80;;;;;23.10;100990.00;;;;10538418;28;20666;-85
2023/06/29 07:05:25;;;;;;;33.03;23.10;;;;;22.90;100985.00;;;;10498461;28;20284;-74
2023/06/29 07:10:26;;;;;;;32.53;23.73;;;;;22.80;100990.00;;;;10505780;28;20196;-74
2023/06/29 07:15:28;;;;;;;36.13;24.23;;;;;22.70;100992.00;;;;10526488;28;20228;-77
2023/06/29 07:20:29;;;;;;;31.98;23.35;;;;;22.60;100989.00;;;;10531351;28;20304;-72
2023/06/29 07:25:33;;;;;;;33.45;23.92;;;;;22.50;100992.00;;;;10516970;28;20657;-75
2023/06/29 07:30:35;;;;;;;36.08;24.33;;;;;22.70;100985.00;;;;10522856;28;20595;-75
2023/06/29 07:35:37;;;;;;;35.03;24.08;;;;;22.90;100983.00;;;;10505406;28;20209;-74
2023/06/29 07:40:38;;;;;;;33.65;23.20;;;;;23.40;100982.00;;;;10492358;28;20721;-85
2023/06/29 07:45:39;;;;;;;34.75;22.60;;;;;23.70;100985.00;;;;10503685;28;20207;-84
2023/06/29 07:50:41;;;;;;;35.05;24.55;;;;;23.60;100982.00;;;;10514671;28;20224;-73
2023/06/29 07:55:43;;;;;;;33.28;23.70;;;;;23.40;100968.00;;;;10508727;28;20203;-72
2023/06/29 08:00:45;;;;;;;33.15;22.88;;;;;23.50;100976.00;;;;10520166;28;20227;-81
2023/06/29 08:05:46;;;;;;;32.10;23.05;;;;;23.50;100969.00;;;;10521557;28;20215;-80
2023/06/29 08:10:50;;;;;;;30.92;23.98;;;;;23.70;100965.00;;;;10500374;28;20211;-76
2023/06/29 08:15:51;;;;;;;31.58;23.60;;;;;23.70;100969.00;;;;10482517;28;20282;-77
2023/06/29 08:20:53;;;;;;;32.30;22.92;;;;;23.80;100962.00;;;;10483346;28;20217;-85
2023/06/29 08:25:55;;;;;;;35.65;25.15;;;;;24.40;100962.00;;;;10500652;28;20272;-77
2023/06/29 08:30:56;;;;;;;30.27;23.70;;;;;25.00;100956.00;;;;10486928;28;20196;-83
2023/06/29 08:35:58;;;;;;;34.40;26.13;;;;;25.10;100961.00;;;;10490883;28;20204;-84
2023/06/29 08:41:00;;;;;;;76.40;29.75;;;;;25.30;100964.00;;;;10447466;28;20220;-78
2023/06/29 08:46:02;;;;;;;54.75;29.70;;;;;25.60;100961.00;;;;10427308;28;20228;-80
2023/06/29 08:51:07;;;;;;;35.47;27.52;;;;;26.00;100955.00;;;;10471256;28;20205;-82
2023/06/29 08:56:09;;;;;;;37.70;28.55;;;;;25.90;100954.00;;;;10490878;28;20220;-75
2023/06/29 09:01:11;;;;;;;36.75;28.02;;;;;25.60;100954.00;;;;10504631;28;20205;-83
2023/06/29 09:06:14;;;;;;;36.90;27.48;;;;;25.40;100949.00;;;;10542240;28;20528;-76
2023/06/29 09:11:16;;;;;;;39.03;28.45;;;;;25.40;100943.00;;;;10541216;28;20207;-84
2023/06/29 09:16:21;;;;;;;36.97;27.67;;;;;25.40;100945.00;;;;10543212;28;20223;-77
2023/06/29 09:21:23;;;;;;;36.25;28.33;;;;;25.40;100944.00;;;;10541788;28;20196;-83
2023/06/29 09:26:28;;;;;;;34.90;26.13;;;;;25.30;100944.00;;;;10541702;28;20554;-83
2023/06/29 09:31:33;;;;;;;42.28;27.35;;;;;25.30;100939.00;;;;10543471;28;20596;-78
2023/06/29 09:36:34;;;;;;;34.47;26.50;;;;;25.30;100938.00;;;;10539541;28;20306;-75
2023/06/29 09:41:45;;;;;;;36.03;27.30;;;;;25.40;100950.00;;;;10521645;28;20519;-75
2023/06/29 09:46:47;;;;;;;37.30;29.35;;;;;25.50;100944.00;;;;10539575;28;20188;-74
2023/06/29 09:52:08;;;;;;;37.28;28.40;;;;;25.50;100954.00;;;;10540243;28;20245;-75
2023/06/29 09:57:13;;;;;;;34.97;27.27;;;;;25.60;100954.00;;;;10539336;28;20204;-75
2023/06/29 10:02:15;;;;;;;38.05;29.27;;;;;25.70;100951.00;;;;10539171;28;20650;-75
2023/06/29 10:07:18;;;;;;;37.78;28.02;;;;;25.80;100955.00;;;;10504173;28;20204;-83
2023/06/29 10:12:24;;;;;;;35.92;27.35;;;;;26.30;100949.00;;;;10522584;28;20197;-75
2023/06/29 10:17:35;;;;;;;37.85;29.42;;;;;26.80;100956.00;;;;10504229;28;20220;-76
2023/06/29 10:22:37;;;;;;;34.08;27.90;;;;;27.00;100951.00;;;;10547546;28;20192;-82
2023/06/29 10:27:39;;;;;;;37.33;27.88;;;;;27.40;100961.00;;;;10522798;28;20197;-77
2023/06/29 10:32:41;;;;;;;38.63;28.63;;;;;27.70;100955.00;;;;10495073;28;20563;-75
2023/06/29 10:37:44;;;;;;;38.13;29.60;;;;;28.20;100952.00;;;;10503485;28;20213;-76
2023/06/29 10:42:46;;;;;;;36.88;28.80;;;;;28.70;100950.00;;;;10503468;28;20189;-74
2023/06/29 10:47:56;;;;;;;37.65;27.80;;;;;29.00;100958.00;;;;10502681;28;20231;-74
2023/06/29 10:52:59;;;;;;;37.53;28.50;;;;;29.10;100945.00;;;;10523677;28;20197;-75
2023/06/29 10:58:11;;;;;;;42.15;30.15;;;;;29.90;100936.00;;;;10504758;28;20217;-78
2023/06/29 11:03:13;;;;;;;41.85;30.05;;;;;29.40;100945.00;;;;10503946;28;20277;-73
2023/06/29 11:08:16;;;;;;;36.03;29.05;;;;;29.00;100938.00;;;;10469107;28;20223;-77
2023/06/29 11:13:21;;;;;;;39.80;30.10;;;;;30.00;100916.00;;;;10503870;28;20248;-78
2023/06/29 11:18:22;;;;;;;35.85;29.63;;;;;30.80;100916.00;;;;10503689;28;20217;-77
2023/06/29 11:23:23;;;;;;;38.22;30.83;;;;;31.00;100918.00;;;;10502811;28;20189;-77
2023/06/29 11:28:25;;;;;;;42.08;31.70;;;;;30.70;100912.00;;;;10502372;28;20201;-78
2023/06/29 11:33:26;;;;;;;40.63;31.60;;;;;31.50;100909.00;;;;10502911;28;20198;-80
2023/06/29 11:39:11;;;;;;;37.53;31.75;;;;;32.80;100900.00;;;;10502220;28;20303;-75
2023/06/29 11:44:13;;;;;;;39.22;30.73;;;;;32.50;100907.00;;;;10502564;28;20190;-74
2023/06/29 11:49:18;;;;;;;39.47;31.85;;;;;31.50;100905.00;;;;10468211;28;20205;-81
2023/06/29 11:54:23;;;;;;;38.72;33.25;;;;;30.40;100906.00;;;;10501789;28;20673;-76
2023/06/29 11:59:25;;;;;;;41.95;32.75;;;;;30.40;100891.00;;;;10483263;28;20205;-77
2023/06/29 12:04:27;;;;;;;37.13;31.63;;;;;30.90;100892.00;;;;10500824;28;20196;-75
2023/06/29 12:09:32;;;;;;;37.88;31.27;;;;;31.10;100892.00;;;;10466746;28;20194;-75
2023/06/29 12:14:34;;;;;;;37.30;32.13;;;;;31.20;100893.00;;;;10500631;28;20621;-75
2023/06/29 12:19:37;;;;;;;39.10;31.42;;;;;30.90;100871.00;;;;10500012;28;20221;-73
2023/06/29 12:24:50;;;;;;;39.75;30.83;;;;;31.20;100884.00;;;;10500087;28;20223;-75
2023/06/29 12:29:52;;;;;;;43.80;33.33;;;;;32.40;100872.00;;;;10511086;28;20203;-79
2023/06/29 12:34:53;;;;;;;40.45;32.35;;;;;32.40;100880.00;;;;10520534;28;20223;-78
2023/06/29 12:39:55;;;;;;;43.92;33.33;;;;;32.30;100873.00;;;;10514459;28;20270;-81
2023/06/29 12:44:56;;;;;;;42.80;33.20;;;;;33.00;100861.00;;;;10515910;28;20281;-77
2023/06/29 12:49:58;;;;;;;36.35;31.60;;;;;33.70;100868.00;;;;10512006;28;20630;-78
2023/06/29 12:54:59;;;;;;;37.67;30.65;;;;;34.30;100866.00;;;;10504723;28;20219;-78
2023/06/29 13:00:00;;;;;;;33.63;29.75;;;;;33.00;100868.00;;;;10536235;28;20217;-75
2023/06/29 13:05:02;;;;;;;40.78;32.80;;;;;32.40;100863.00;;;;10532500;28;20254;-75
2023/06/29 13:10:05;;;;;;;35.42;30.20;;;;;33.10;100858.00;;;;10508213;28;20292;-75
2023/06/29 13:15:07;;;;;;;35.88;29.73;;;;;31.20;100864.00;;;;10529559;28;20323;-76
2023/06/29 13:20:09;;;;;;;39.17;31.25;;;;;29.90;100875.00;;;;10532749;28;20681;-80
2023/06/29 13:25:10;;;;;;;37.83;31.17;;;;;28.60;100868.00;;;;10527892;28;20689;-78
2023/06/29 13:30:14;;;;;;;39.25;30.30;;;;;27.10;100868.00;;;;10526722;28;20209;-76
2023/06/29 13:35:16;;;;;;;37.67;24.60;;;;;25.60;100868.00;;;;10526932;28;20540;-82
2023/06/29 13:40:17;;;;;;;31.88;22.80;;;;;24.30;100869.00;;;;10516539;28;20213;-84
2023/06/29 13:45:19;;;;;;;30.40;21.17;;;;;23.30;100885.00;;;;10516001;28;20212;-81
2023/06/29 13:50:20;;;;;;;31.45;23.35;;;;;22.40;100884.00;;;;10508880;28;20201;-82
2023/06/29 13:55:29;;;;;;;34.08;25.00;;;;;22.90;100874.00;;;;10498645;28;20201;-75
2023/06/29 14:00:30;;;;;;;32.10;23.98;;;;;24.60;100885.00;;;;10519918;28;20571;-76
2023/06/29 14:05:32;;;;;;;30.52;22.45;;;;;25.10;100881.00;;;;10545805;28;20193;-76
2023/06/29 14:10:41;;;;;;;30.45;19.20;;;;;25.00;100870.00;;;;10545902;28;20680;-75
2023/06/29 14:15:42;;;;;;;26.85;21.35;;;;;25.20;100871.00;;;;10546069;28;20617;-76
2023/06/29 14:20:44;;;;;;;28.58;21.95;;;;;25.20;100870.00;;;;10489003;28;20245;-76
2023/06/29 14:25:45;;;;;;;32.63;23.67;;;;;25.60;100870.00;;;;10544821;28;20250;-76
2023/06/29 14:30:47;;;;;;;33.17;23.63;;;;;25.90;100867.00;;;;10530682;28;20203;-83
2023/06/29 14:35:50;;;;;;;30.40;21.92;;;;;25.90;100870.00;;;;10523079;28;20201;-83
2023/06/29 14:40:52;;;;;;;26.45;21.48;;;;;25.80;100868.00;;;;10529292;28;20232;-81
2023/06/29 14:45:55;;;;;;;27.10;21.10;;;;;25.40;100868.00;;;;10503443;28;20186;-84
2023/06/29 14:50:57;;;;;;;27.27;21.10;;;;;25.10;100858.00;;;;10536123;28;20196;-76
2023/06/29 14:56:09;;;;;;;30.55;21.08;;;;;25.20;100856.00;;;;10547521;28;20249;-73
2023/06/29 15:01:10;;;;;;;31.35;21.63;;;;;25.20;100858.00;;;;10555753;28;20216;-73
2023/06/29 15:06:12;;;;;;;28.40;19.70;;;;;25.40;100847.00;;;;10545421;28;20409;-75
2023/06/29 15:11:13;;;;;;;21.15;14.50;;;;;25.90;100838.00;;;;10518033;28;20204;-75
2023/06/29 15:16:14;;;;;;;20.65;16.70;;;;;26.10;100844.00;;;;10508584;28;20756;-76
2023/06/29 15:21:16;;;;;;;19.73;15.52;;;;;27.40;100825.00;;;;10522826;28;20508;-77
2023/06/29 15:26:17;;;;;;;18.83;15.55;;;;;27.90;100833.00;;;;10494864;28;20287;-77
2023/06/29 15:31:19;;;;;;;19.23;14.73;;;;;27.00;100846.00;;;;10503624;28;20196;-76
2023/06/29 15:36:20;;;;;;;22.77;15.68;;;;;26.30;100831.00;;;;10522961;28;20670;-76
2023/06/29 15:41:23;;;;;;;22.65;17.58;;;;;25.40;100830.00;;;;10518592;28;20212;-84
2023/06/29 15:46:29;;;;;;;19.45;15.68;;;;;24.80;100824.00;;;;10514530;28;20250;-73
2023/06/29 15:51:31;;;;;;;19.77;14.90;;;;;24.40;100823.00;;;;10531393;28;20558;-75
2023/06/29 15:56:32;;;;;;;21.95;17.90;;;;;24.00;100823.00;;;;10521594;28;20215;-75
2023/06/29 16:01:33;;;;;;;21.83;17.60;;;;;24.40;100837.00;;;;10520292;28;20205;-75
2023/06/29 16:06:35;;;;;;;21.38;17.13;;;;;24.20;100832.00;;;;10510320;28;20651;-76
2023/06/29 16:11:36;;;;;;;19.83;14.93;;;;;23.70;100834.00;;;;10487169;28;20209;-75
2023/06/29 16:16:38;;;;;;;19.33;13.13;;;;;22.70;100850.00;;;;10498789;28;20200;-83
2023/06/29 16:21:39;;;;;;;22.23;13.15;;;;;22.00;100846.00;;;;10532533;28;20242;-76
2023/06/29 16:26:40;;;;;;;17.95;12.80;;;;;21.90;100855.00;;;;10540155;28;20201;-84
2023/06/29 16:31:42;;;;;;;19.73;13.27;;;;;21.40;100854.00;;;;10504262;28;20300;-75
2023/06/29 16:36:46;;;;;;;22.70;15.00;;;;;20.90;100868.00;;;;10517150;28;20213;-84
2023/06/29 16:41:47;;;;;;;18.83;12.07;;;;;20.80;100873.00;;;;10541617;28;20197;-84
2023/06/29 16:46:51;;;;;;;15.93;11.88;;;;;20.70;100879.00;;;;10538839;28;20648;-75
2023/06/29 16:51:54;;;;;;;22.15;14.27;;;;;20.70;100881.00;;;;10524688;28;20231;-82
2023/06/29 16:56:55;;;;;;;20.60;12.70;;;;;21.10;100884.00;;;;10537645;28;20266;-75
2023/06/29 17:01:57;;;;;;;17.08;11.40;;;;;21.20;100888.00;;;;10528036;28;20270;-75
2023/06/29 17:06:58;;;;;;;16.15;10.77;;;;;21.20;100889.00;;;;10532499;28;20566;-82
2023/06/29 17:11:59;;;;;;;12.32;8.73;;;;;21.00;100909.00;;;;10508429;28;20227;-75
2023/06/29 17:17:01;;;;;;;10.45;7.43;;;;;20.50;100901.00;;;;10521878;28;20201;-77
2023/06/29 17:22:03;;;;;;;8.25;5.55;;;;;20.10;100914.00;;;;10523867;28;20202;-74
2023/06/29 17:27:04;;;;;;;8.15;4.80;;;;;19.90;100920.00;;;;10530840;28;20665;-75
2023/06/29 17:32:07;;;;;;;5.95;3.10;;;;;19.60;100922.00;;;;10516899;28;20204;-75
2023/06/29 17:37:09;;;;;;;7.28;3.70;;;;;19.30;100932.00;;;;10531238;28;20751;-73
2023/06/29 17:42:21;;;;;;;5.28;3.20;;;;;19.10;100918.00;;;;10551577;28;20205;-75
2023/06/29 17:47:22;;;;;;;6.57;3.20;;;;;19.00;100931.00;;;;10518265;28;20273;-72
2023/06/29 17:52:24;;;;;;;4.72;2.65;;;;;18.80;100930.00;;;;10505580;28;20209;-81
2023/06/29 17:57:25;;;;;;;6.35;3.13;;;;;18.60;100924.00;;;;10515898;28;20276;-74
2023/06/29 18:02:26;;;;;;;6.53;2.70;;;;;18.50;100955.00;;;;10526361;28;20208;-74
2023/06/29 18:07:28;;;;;;;4.47;2.53;;;;;18.40;100961.00;;;;10499877;28;20201;-74
2023/06/29 18:12:29;;;;;;;5.00;2.72;;;;;18.20;100960.00;;;;10522032;28;20201;-75
2023/06/29 18:17:30;;;;;;;4.35;2.55;;;;;18.10;100967.00;;;;10529322;28;20266;-74
2023/06/29 18:22:32;;;;;;;6.47;2.45;;;;;18.10;100960.00;;;;10535500;28;20258;-74
2023/06/29 18:27:33;;;;;;;5.60;2.88;;;;;17.90;100953.00;;;;10533789;28;20228;-81
2023/06/29 18:32:35;;;;;;;5.78;3.17;;;;;17.80;100980.00;;;;10516350;28;20201;-74
2023/06/29 18:37:44;;;;;;;3.72;2.85;;;;;17.70;100979.00;;;;10515291;28;20212;-74
2023/06/29 18:42:45;;;;;;;4.18;2.80;;;;;17.70;100973.00;;;;10531674;28;20197;-75
2023/06/29 18:47:47;;;;;;;7.03;2.90;;;;;17.60;100993.00;;;;10524107;28;20213;-74
2023/06/29 18:52:49;;;;;;;6.57;4.65;;;;;17.40;100985.00;;;;10524955;28;20205;-81
2023/06/29 18:57:50;;;;;;;5.78;3.75;;;;;17.30;100991.00;;;;10541717;28;20577;-72
2023/06/29 19:02:51;;;;;;;8.23;5.22;;;;;17.20;101002.00;;;;10522935;28;20249;-75
2023/06/29 19:07:53;;;;;;;6.78;5.63;;;;;17.00;101008.00;;;;10523838;28;20193;-74
2023/06/29 19:12:54;;;;;;;7.57;4.82;;;;;17.00;101012.00;;;;10525028;28;20316;-81
2023/06/29 19:17:57;;;;;;;5.22;4.38;;;;;17.00;101005.00;;;;10523855;28;20303;-75
2023/06/29 19:22:58;;;;;;;6.03;3.58;;;;;16.80;101004.00;;;;10521238;28;20662;-81
2023/06/29 19:28:00;;;;;;;5.57;4.00;;;;;16.30;101010.00;;;;10499232;28;20205;-81
2023/06/29 19:33:01;;;;;;;4.20;3.80;;;;;16.10;101012.00;;;;10523172;28;20268;-77
2023/06/29 19:38:03;;;;;;;5.68;3.63;;;;;16.00;101024.00;;;;10533239;28;20233;-80
2023/06/29 19:43:04;;;;;;;3.42;3.15;;;;;15.90;101016.00;;;;10526623;28;20253;-79
2023/06/29 19:48:06;;;;;;;7.80;3.67;;;;;15.80;101020.00;;;;10531512;28;20197;-73
2023/06/29 19:53:07;;;;;;;5.40;4.07;;;;;15.70;101030.00;;;;10498052;28;20551;-75
2023/06/29 19:58:09;;;;;;;7.70;4.30;;;;;15.70;101022.00;;;;10520406;28;20267;-79
2023/06/29 20:03:10;;;;;;;5.35;4.35;;;;;15.70;101016.00;;;;10539082;28;20208;-73
2023/06/29 20:08:11;;;;;;;6.38;5.03;;;;;15.80;101011.00;;;;10527549;28;20554;-78
2023/06/29 20:13:12;;;;;;;5.97;4.75;;;;;15.80;101019.00;;;;10532287;28;20228;-78
2023/06/29 20:18:14;;;;;;;5.35;4.95;;;;;15.80;101031.00;;;;10515542;28;20260;-79
2023/06/29 20:23:15;;;;;;;8.75;5.25;;;;;15.80;101025.00;;;;10539474;28;20681;-79
2023/06/29 20:28:16;;;;;;;6.82;5.03;;;;;15.90;101024.00;;;;10540347;28;20608;-76
2023/06/29 20:33:17;;;;;;;7.22;3.90;;;;;15.80;101028.00;;;;10537041;28;20192;-80
2023/06/29 20:38:18;;;;;;;5.65;3.63;;;;;15.70;101032.00;;;;10521351;28;20227;-80
2023/06/29 20:43:21;;;;;;;3.47;2.72;;;;;15.70;101035.00;;;;10498055;28;20201;-79
2023/06/29 20:48:22;;;;;;;6.40;2.92;;;;;15.50;101032.00;;;;10503507;28;20212;-79
2023/06/29 20:53:23;;;;;;;3.33;2.63;;;;;15.50;101032.00;;;;10531316;28;20254;-78
2023/06/29 20:58:24;;;;;;;2.78;2.58;;;;;15.50;101032.00;;;;10538539;28;20662;-78
2023/06/29 21:03:28;;;;;;;6.60;2.85;;;;;15.40;101038.00;;;;10529020;28;20209;-79
2023/06/29 21:08:29;;;;;;;3.70;2.55;;;;;15.40;101030.00;;;;10485425;28;20196;-79
2023/06/29 21:13:31;;;;;;;4.53;3.10;;;;;15.40;101031.00;;;;10519045;28;20225;-78
2023/06/29 21:18:32;;;;;;;5.05;3.30;;;;;15.40;101041.00;;;;10536118;28;20543;-79
2023/06/29 21:23:34;;;;;;;4.07;2.97;;;;;15.40;101024.00;;;;10519015;28;20254;-78
2023/06/29 21:28:40;;;;;;;4.60;2.70;;;;;15.40;101012.00;;;;10531324;28;20207;-79
2023/06/29 21:33:41;;;;;;;3.30;2.80;;;;;15.30;101023.00;;;;10519559;28;20189;-79
2023/06/29 21:38:43;;;;;;;6.00;3.17;;;;;15.30;101021.00;;;;10495351;28;20217;-78
2023/06/29 21:43:51;;;;;;;5.15;3.28;;;;;15.20;101027.00;;;;10509419;28;20201;-78
2023/06/29 21:48:52;;;;;;;4.85;2.83;;;;;15.20;101027.00;;;;10509327;28;20197;-78
2023/06/29 21:53:54;;;;;;;5.60;3.38;;;;;15.20;101032.00;;;;10517050;28;20193;-78
2023/06/29 21:58:55;;;;;;;5.18;3.90;;;;;15.20;101025.00;;;;10495329;28;20220;-78
2023/06/29 22:03:56;;;;;;;4.93;3.40;;;;;15.20;101028.00;;;;10532309;28;20189;-78
2023/06/29 22:09:02;;;;;;;4.20;3.45;;;;;15.20;101024.00;;;;10523752;28;20201;-77
2023/06/29 22:14:06;;;;;;;7.13;3.75;;;;;15.20;101032.00;;;;10518975;28;20199;-76
2023/06/29 22:19:09;;;;;;;5.65;3.95;;;;;15.10;101042.00;;;;10541834;28;20567;-79
2023/06/29 22:24:10;;;;;;;6.45;4.18;;;;;15.10;101043.00;;;;10510468;28;20189;-79
2023/06/29 22:29:11;;;;;;;4.00;3.47;;;;;15.10;101039.00;;;;10542264;28;20203;-77
2023/06/29 22:34:14;;;;;;;5.82;4.07;;;;;15.10;101030.00;;;;10542424;28;20230;-79
2023/06/29 22:39:15;;;;;;;7.88;3.90;;;;;15.00;101043.00;;;;10531735;28;20217;-76
2023/06/29 22:44:17;;;;;;;4.13;3.72;;;;;15.00;101026.00;;;;10520214;28;20217;-77
2023/06/29 22:49:18;;;;;;;4.45;4.03;;;;;14.90;101032.00;;;;10541560;28;20232;-78
2023/06/29 22:54:19;;;;;;;5.25;3.53;;;;;15.00;101026.00;;;;10541624;28;20201;-78
2023/06/29 22:59:20;;;;;;;7.00;4.72;;;;;15.00;101007.00;;;;10529750;28;20224;-78
2023/06/29 23:04:21;;;;;;;5.15;4.32;;;;;15.00;101012.00;;;;10540252;28;20209;-79
2023/06/29 23:09:24;;;;;;;7.10;4.18;;;;;15.00;101006.00;;;;10510921;28;20238;-78
2023/06/29 23:14:25;;;;;;;6.88;4.25;;;;;14.90;101005.00;;;;10499177;28;20615;-78
2023/06/29 23:19:27;;;;;;;8.10;5.30;;;;;14.90;101011.00;;;;10536446;28;20223;-76
2023/06/29 23:24:28;;;;;;;5.97;4.68;;;;;14.80;101020.00;;;;10538757;28;20201;-77
2023/06/29 23:29:31;;;;;;;8.80;4.88;;;;;14.70;101014.00;;;;10538946;28;20238;-77
2023/06/29 23:34:32;;;;;;;6.65;4.55;;;;;14.60;101016.00;;;;10518440;28;20284;-78
2023/06/29 23:39:37;;;;;;;5.80;4.90;;;;;14.70;101015.00;;;;10492787;28;20263;-78
2023/06/29 23:44:40;;;;;;;7.65;4.75;;;;;14.70;101016.00;;;;10539582;28;20262;-78
2023/06/29 23:49:42;;;;;;;13.25;6.40;;;;;14.70;101021.00;;;;10538766;28;20225;-78
2023/06/29 23:54:43;;;;;;;8.88;6.50;;;;;14.70;101011.00;;;;10538197;28;20200;-77
2023/06/29 23:59:44;;;;;;;10.80;7.30;;;;;14.80;101000.00;;;;10538169;28;20225;-78
